Time;durP1;ratioP1;P1;durP2;ratioP2;P2;SDS_P1;SDS_P2;PMS_P1;PMS_P2;Temp;Humidity;BMP_temperature;BMP_pressure;BME280_temperature;BME280_humidity;BME280_pressure;Samples;Min_cycle;Max_cycle;Signal;HPM_P1;HPM_P2
2023/05/19 00:00:59;;;;;;;3.97;1.70;;;14.40;44.00;;;;;;5044947;28;20052;-45
2023/05/19 00:03:26;;;;;;;3.88;1.55;;;14.40;44.10;;;;;;5044397;28;20409;-47
2023/05/19 00:05:55;;;;;;;5.63;1.60;;;14.40;44.20;;;;;;5047224;28;20051;-47
2023/05/19 00:08:24;;;;;;;6.22;1.63;;;14.30;44.20;;;;;;5044191;28;20052;-44
2023/05/19 00:10:52;;;;;;;6.35;1.85;;;14.30;44.20;;;;;;5044751;28;20060;-49
2023/05/19 00:13:20;;;;;;;4.47;1.65;;;14.30;44.20;;;;;;5044550;28;20064;-44
2023/05/19 00:15:48;;;;;;;5.45;1.80;;;14.30;44.20;;;;;;5042057;28;20052;-45
2023/05/19 00:18:17;;;;;;;3.95;1.85;;;14.30;44.30;;;;;;5044648;28;20045;-44
2023/05/19 00:20:44;;;;;;;5.25;1.60;;;14.30;44.30;;;;;;5045491;28;20056;-45
2023/05/19 00:23:11;;;;;;;3.85;1.42;;;14.20;44.30;;;;;;5045225;28;20063;-44
2023/05/19 00:25:38;;;;;;;4.32;1.80;;;14.20;44.30;;;;;;5044425;28;20049;-46
2023/05/19 00:28:06;;;;;;;4.03;1.42;;;14.20;44.30;;;;;;5045224;28;20059;-44
2023/05/19 00:30:33;;;;;;;6.38;2.00;;;14.10;44.20;;;;;;5044508;28;20052;-45
2023/05/19 00:33:00;;;;;;;6.03;1.40;;;14.10;44.30;;;;;;5043753;28;20052;-45
2023/05/19 00:35:28;;;;;;;3.95;1.65;;;14.10;44.40;;;;;;5043570;28;20048;-45
2023/05/19 00:37:56;;;;;;;5.80;1.80;;;14.00;44.40;;;;;;5043542;28;20056;-45
2023/05/19 00:40:24;;;;;;;7.22;1.83;;;14.00;44.40;;;;;;5043572;28;20064;-44
2023/05/19 00:42:52;;;;;;;5.75;1.45;;;14.00;44.50;;;;;;5045168;28;20071;-44
2023/05/19 00:45:19;;;;;;;7.22;1.80;;;14.00;44.50;;;;;;5043702;28;20044;-44
2023/05/19 00:47:48;;;;;;;4.13;1.52;;;14.00;44.50;;;;;;5044659;28;20064;-47
2023/05/19 00:50:15;;;;;;;4.07;1.65;;;13.90;44.60;;;;;;5043641;28;20053;-45
2023/05/19 00:52:44;;;;;;;3.75;1.40;;;13.90;44.70;;;;;;5043881;28;20049;-45
2023/05/19 00:55:12;;;;;;;3.67;1.60;;;13.90;44.80;;;;;;5044343;28;20053;-49
2023/05/19 00:57:40;;;;;;;5.65;1.58;;;13.80;44.70;;;;;;5044710;28;20053;-43
2023/05/19 01:00:08;;;;;;;3.65;1.17;;;13.80;44.80;;;;;;5043537;28;20059;-44
2023/05/19 01:02:37;;;;;;;4.40;1.45;;;13.80;44.80;;;;;;5076290;22;20053;-55
2023/05/19 01:05:05;;;;;;;2.72;1.20;;;13.80;44.80;;;;;;5050756;28;20055;-56
2023/05/19 01:07:32;;;;;;;3.28;1.33;;;13.70;44.80;;;;;;5047549;28;20407;-55
2023/05/19 01:10:01;;;;;;;4.50;1.67;;;13.70;44.90;;;;;;5051186;28;20070;-56
2023/05/19 01:12:29;;;;;;;3.03;1.48;;;13.70;45.10;;;;;;5054413;28;20068;-55
2023/05/19 01:14:58;;;;;;;3.53;1.30;;;13.70;45.20;;;;;;5054059;28;20485;-55
2023/05/19 01:17:34;;;;;;;4.82;1.60;;;13.70;45.20;;;;;;5048827;28;20067;-55
2023/05/19 01:20:09;;;;;;;3.70;1.50;;;13.60;45.50;;;;;;5054326;28;20057;-55
2023/05/19 01:22:53;;;;;;;5.80;1.65;;;13.60;45.30;;;;;;5049963;28;20488;-56
2023/05/19 01:25:47;;;;;;;7.47;1.65;;;13.60;45.30;;;;;;5052363;28;20052;-57
2023/05/19 01:28:31;;;;;;;4.73;1.77;;;13.50;45.20;;;;;;5050457;28;20053;-56
2023/05/19 01:31:03;;;;;;;5.47;1.63;;;13.50;45.20;;;;;;5050573;28;20533;-56
2023/05/19 01:33:32;;;;;;;3.67;1.55;;;13.50;45.10;;;;;;5056779;28;20064;-56
2023/05/19 01:36:02;;;;;;;4.22;1.52;;;13.40;45.10;;;;;;5051680;28;20055;-56
2023/05/19 01:38:30;;;;;;;5.90;1.65;;;13.40;45.20;;;;;;5051451;28;20422;-56
2023/05/19 01:40:58;;;;;;;5.32;1.48;;;13.40;45.30;;;;;;5053944;28;20508;-56
2023/05/19 01:43:27;;;;;;;3.20;1.48;;;13.40;45.40;;;;;;5042810;28;20059;-55
2023/05/19 01:45:57;;;;;;;5.55;1.60;;;13.30;45.40;;;;;;5052546;28;20056;-56
2023/05/19 01:48:26;;;;;;;3.55;1.95;;;13.30;45.40;;;;;;5056075;28;20052;-56
2023/05/19 01:50:56;;;;;;;6.47;1.77;;;13.30;45.50;;;;;;5051408;28;20404;-55
2023/05/19 01:53:23;;;;;;;4.57;1.38;;;13.30;45.50;;;;;;5048259;28;20068;-58
2023/05/19 01:55:55;;;;;;;3.40;1.40;;;13.30;45.60;;;;;;5054710;28;20048;-55
2023/05/19 01:58:34;;;;;;;3.83;1.50;;;13.20;45.60;;;;;;5051261;28;20056;-56
2023/05/19 02:01:10;;;;;;;4.82;1.50;;;13.20;45.70;;;;;;5050201;28;20057;-55
2023/05/19 02:03:50;;;;;;;6.05;1.35;;;13.20;45.70;;;;;;5052041;28;20060;-55
2023/05/19 02:06:26;;;;;;;5.55;1.70;;;13.20;45.80;;;;;;5051713;28;20071;-56
2023/05/19 02:09:00;;;;;;;3.10;1.42;;;13.20;45.80;;;;;;5054919;28;20048;-54
2023/05/19 02:11:36;;;;;;;3.60;1.50;;;13.10;45.70;;;;;;5049738;28;20131;-56
2023/05/19 02:24:12;;;;;;;3.55;1.65;;;13.00;46.00;;;;;;5049009;28;20051;-57
2023/05/19 02:26:39;;;;;;;6.97;1.73;;;13.00;46.00;;;;;;5047936;28;20048;-56
2023/05/19 02:29:06;;;;;;;3.88;1.30;;;13.00;46.10;;;;;;5055493;28;20048;-55
2023/05/19 02:31:33;;;;;;;3.90;1.65;;;12.90;46.00;;;;;;5051354;28;20132;-55
2023/05/19 02:34:00;;;;;;;5.20;1.88;;;12.90;46.10;;;;;;5052035;28;20523;-56
2023/05/19 02:36:28;;;;;;;7.03;1.63;;;12.90;46.10;;;;;;5054172;28;20052;-56
2023/05/19 02:38:55;;;;;;;5.13;1.50;;;12.90;46.20;;;;;;5051013;28;20092;-56
2023/05/19 02:41:24;;;;;;;3.88;1.50;;;12.90;46.40;;;;;;5054239;28;20053;-56
2023/05/19 02:43:52;;;;;;;3.97;1.70;;;12.80;46.40;;;;;;5053075;28;20063;-56
2023/05/19 02:46:19;;;;;;;6.68;2.47;;;12.80;46.40;;;;;;5050346;28;20057;-57
2023/05/19 02:48:46;;;;;;;5.78;1.45;;;12.80;46.60;;;;;;5053660;28;20052;-56
2023/05/19 02:51:13;;;;;;;7.53;1.77;;;12.70;46.50;;;;;;5052334;28;20471;-56
2023/05/19 02:53:40;;;;;;;3.50;1.55;;;12.70;46.50;;;;;;5051182;28;20049;-55
2023/05/19 02:56:07;;;;;;;5.53;1.60;;;12.70;46.60;;;;;;5054956;28;20063;-55
2023/05/19 02:58:36;;;;;;;4.03;1.77;;;12.70;46.60;;;;;;5055303;28;20049;-56
2023/05/19 03:01:03;;;;;;;6.13;2.08;;;12.70;46.70;;;;;;5050031;28;21517;-57
2023/05/19 03:03:31;;;;;;;4.75;1.70;;;12.70;46.70;;;;;;5045387;28;20533;-56
2023/05/19 03:05:58;;;;;;;5.10;1.83;;;12.60;46.80;;;;;;5052361;28;20052;-56
2023/05/19 03:08:26;;;;;;;4.07;1.50;;;12.60;46.80;;;;;;5055343;28;20056;-56
2023/05/19 03:10:53;;;;;;;2.13;1.30;;;12.60;46.80;;;;;;5051714;28;20518;-57
2023/05/19 03:13:20;;;;;;;5.05;1.67;;;12.60;46.80;;;;;;5055220;28;20049;-55
2023/05/19 03:15:49;;;;;;;4.57;1.33;;;12.60;46.80;;;;;;5052670;28;20068;-57
2023/05/19 03:18:17;;;;;;;5.50;1.63;;;12.60;47.00;;;;;;5046334;28;20056;-57
2023/05/19 03:20:44;;;;;;;3.33;2.13;;;12.60;47.20;;;;;;5046825;28;20434;-57
2023/05/19 03:23:11;;;;;;;4.43;1.50;;;12.60;47.30;;;;;;5048967;28;20056;-56
2023/05/19 03:25:38;;;;;;;4.30;1.60;;;12.60;47.40;;;;;;5040594;28;20516;-56
2023/05/19 03:28:05;;;;;;;4.50;1.35;;;12.50;47.40;;;;;;5052002;28;20064;-56
2023/05/19 03:30:33;;;;;;;4.95;1.52;;;12.50;47.40;;;;;;5045477;28;20056;-56
2023/05/19 03:33:01;;;;;;;3.75;1.30;;;12.50;47.50;;;;;;5050479;28;20049;-55
2023/05/19 03:35:28;;;;;;;4.90;1.23;;;12.50;47.50;;;;;;5046383;28;20057;-55
2023/05/19 03:37:56;;;;;;;3.92;1.50;;;12.50;47.50;;;;;;5053861;28;20045;-56
2023/05/19 03:40:23;;;;;;;5.20;2.00;;;12.40;47.50;;;;;;5054547;28;20621;-57
2023/05/19 03:42:50;;;;;;;5.55;1.77;;;12.40;47.60;;;;;;5055880;28;20056;-56
2023/05/19 03:45:17;;;;;;;2.65;1.30;;;12.40;47.60;;;;;;5050972;28;20496;-56
2023/05/19 03:47:46;;;;;;;5.53;1.50;;;12.40;47.60;;;;;;5061741;28;20052;-57
2023/05/19 03:50:15;;;;;;;4.95;2.22;;;12.40;47.60;;;;;;5060475;28;22672;-56
2023/05/19 03:52:44;;;;;;;4.38;1.60;;;12.30;47.60;;;;;;5044987;28;20044;-56
2023/05/19 03:55:11;;;;;;;5.82;2.08;;;12.40;47.60;;;;;;5056803;28;20052;-56
2023/05/19 03:57:38;;;;;;;4.70;1.60;;;12.30;47.60;;;;;;5057526;28;20483;-55
2023/05/19 04:00:07;;;;;;;7.20;1.67;;;12.30;47.60;;;;;;5051752;28;21237;-56
2023/05/19 04:02:34;;;;;;;3.70;1.38;;;12.30;47.70;;;;;;5046613;28;20049;-56
2023/05/19 04:05:03;;;;;;;4.82;1.77;;;12.20;47.70;;;;;;5054324;28;20052;-56
2023/05/19 04:07:32;;;;;;;6.18;2.00;;;12.30;47.80;;;;;;5056918;28;20048;-56
2023/05/19 04:09:59;;;;;;;4.15;1.58;;;12.30;47.80;;;;;;5059037;28;20103;-56
2023/05/19 04:12:26;;;;;;;8.60;1.75;;;12.20;47.80;;;;;;5058996;28;20057;-56
2023/05/19 04:14:54;;;;;;;3.70;1.35;;;12.20;47.80;;;;;;5050565;28;20063;-57
2023/05/19 04:17:24;;;;;;;4.10;1.50;;;12.20;47.80;;;;;;5053552;28;20052;-57
2023/05/19 04:19:52;;;;;;;5.95;1.70;;;12.20;47.90;;;;;;5050351;28;20055;-57
2023/05/19 04:22:20;;;;;;;6.55;1.85;;;12.20;47.90;;;;;;5046426;28;20049;-57
2023/05/19 04:24:50;;;;;;;3.38;1.42;;;12.10;48.00;;;;;;5060749;28;20056;-56
2023/05/19 04:27:17;;;;;;;6.28;1.60;;;12.20;48.10;;;;;;5059598;28;20144;-57
2023/05/19 04:29:47;;;;;;;1.77;1.27;;;12.10;48.00;;;;;;5059960;28;20060;-56
2023/05/19 04:32:16;;;;;;;6.93;1.80;;;12.10;48.20;;;;;;5059264;28;20411;-57
2023/05/19 04:34:44;;;;;;;4.88;1.80;;;12.10;48.30;;;;;;5061526;28;20538;-56
2023/05/19 04:37:12;;;;;;;5.57;1.90;;;12.10;48.40;;;;;;5060611;28;20056;-56
2023/05/19 04:39:41;;;;;;;6.28;2.10;;;12.20;48.50;;;;;;5061609;28;20084;-57
2023/05/19 04:42:10;;;;;;;5.38;1.60;;;12.20;48.70;;;;;;5057622;28;20052;-56
2023/05/19 04:44:38;;;;;;;5.18;1.77;;;12.20;48.80;;;;;;5060968;28;20063;-56
2023/05/19 04:47:07;;;;;;;4.80;1.55;;;12.20;48.90;;;;;;5059033;28;20491;-55
2023/05/19 04:49:37;;;;;;;5.68;1.88;;;12.20;48.90;;;;;;5053644;28;20077;-56
2023/05/19 04:52:07;;;;;;;4.55;1.80;;;12.20;48.90;;;;;;5042918;28;20517;-56
2023/05/19 04:54:34;;;;;;;12.52;5.43;;;12.20;48.90;;;;;;5061077;28;20052;-56
2023/05/19 04:57:01;;;;;;;12.32;4.05;;;12.20;48.90;;;;;;5060038;28;20059;-56
2023/05/19 04:59:30;;;;;;;8.13;3.60;;;12.20;48.90;;;;;;5061166;28;20056;-57
2023/05/19 05:01:58;;;;;;;7.38;2.78;;;12.20;49.10;;;;;;5055211;28;20060;-57
2023/05/19 05:04:25;;;;;;;5.05;2.30;;;12.20;49.10;;;;;;5056293;28;20056;-56
2023/05/19 05:06:52;;;;;;;7.72;2.08;;;12.20;49.10;;;;;;5062729;28;20048;-56
2023/05/19 05:09:19;;;;;;;7.38;2.28;;;12.20;49.20;;;;;;5059413;28;20052;-56
2023/05/19 05:11:47;;;;;;;12.50;2.60;;;12.30;49.20;;;;;;5059774;28;20052;-57
2023/05/19 05:14:15;;;;;;;4.50;1.95;;;12.20;49.30;;;;;;5059469;28;20059;-55
2023/05/19 05:16:45;;;;;;;4.47;1.80;;;12.30;49.30;;;;;;5053767;28;20048;-56
2023/05/19 05:19:13;;;;;;;8.02;1.90;;;12.20;49.20;;;;;;5059971;28;20059;-56
2023/05/19 05:21:42;;;;;;;4.47;1.65;;;12.20;49.20;;;;;;5061108;28;20060;-56
2023/05/19 05:24:11;;;;;;;3.95;1.55;;;12.30;49.40;;;;;;5059059;28;20509;-57
2023/05/19 05:26:39;;;;;;;7.50;1.98;;;12.30;49.40;;;;;;5056017;28;20083;-56
2023/05/19 05:29:07;;;;;;;6.15;2.30;;;12.30;49.60;;;;;;5055797;28;20044;-57
2023/05/19 05:31:35;;;;;;;5.43;1.83;;;12.30;49.60;;;;;;5057798;28;20489;-56
2023/05/19 05:34:04;;;;;;;7.13;2.40;;;12.30;49.70;;;;;;5060619;28;20917;-57
2023/05/19 05:36:33;;;;;;;7.60;1.90;;;12.40;49.80;;;;;;5060525;28;20456;-56
2023/05/19 05:39:01;;;;;;;8.55;1.83;;;12.40;49.70;;;;;;5060394;28;20059;-56
2023/05/19 05:41:33;;;;;;;5.32;1.73;;;12.40;49.80;;;;;;5059865;28;20067;-57
2023/05/19 05:44:01;;;;;;;6.55;2.22;;;12.50;49.80;;;;;;5058104;28;20048;-58
2023/05/19 05:46:28;;;;;;;3.15;1.60;;;12.50;49.70;;;;;;5058847;28;20064;-57
2023/05/19 05:48:56;;;;;;;5.97;2.05;;;12.50;49.60;;;;;;5061586;28;20059;-57
2023/05/19 05:51:25;;;;;;;7.03;1.63;;;12.60;49.60;;;;;;5059473;28;20067;-57
2023/05/19 05:53:55;;;;;;;5.45;2.00;;;12.60;49.60;;;;;;5060831;28;20053;-56
2023/05/19 05:56:22;;;;;;;5.97;1.73;;;12.70;49.80;;;;;;5059458;28;20053;-58
2023/05/19 05:58:50;;;;;;;6.45;1.90;;;12.70;49.80;;;;;;5059755;28;20044;-57
2023/05/19 06:01:18;;;;;;;3.80;1.75;;;12.80;49.90;;;;;;5057126;28;20063;-57
2023/05/19 06:03:45;;;;;;;4.68;1.95;;;12.80;49.80;;;;;;5060184;28;20064;-57
2023/05/19 06:06:12;;;;;;;5.60;1.92;;;12.90;49.70;;;;;;5058809;28;20072;-56
2023/05/19 06:08:41;;;;;;;3.97;1.60;;;12.90;49.70;;;;;;5060066;28;20401;-57
2023/05/19 06:11:09;;;;;;;4.13;1.58;;;13.00;49.80;;;;;;5057988;28;20059;-55
2023/05/19 06:13:36;;;;;;;5.57;1.90;;;13.00;49.70;;;;;;5060190;28;20044;-56
2023/05/19 06:16:04;;;;;;;6.93;1.60;;;13.10;49.80;;;;;;5057331;28;20062;-57
2023/05/19 06:18:32;;;;;;;6.03;1.75;;;13.10;49.70;;;;;;5046565;28;20068;-57
2023/05/19 06:21:00;;;;;;;7.10;1.80;;;13.20;49.80;;;;;;5057059;28;20052;-56
2023/05/19 06:23:28;;;;;;;6.55;2.40;;;13.20;49.80;;;;;;5057110;28;20056;-56
2023/05/19 06:25:57;;;;;;;12.82;2.10;;;13.30;49.70;;;;;;5058617;28;20068;-56
2023/05/19 06:28:25;;;;;;;6.35;2.15;;;13.40;49.70;;;;;;5054167;28;20420;-56
2023/05/19 06:30:53;;;;;;;8.52;1.92;;;13.40;49.70;;;;;;5051128;28;20060;-57
2023/05/19 06:33:21;;;;;;;9.90;1.83;;;13.50;49.70;;;;;;5103733;22;20066;-90
2023/05/19 06:35:49;;;;;;;4.03;1.60;;;13.60;49.70;;;;;;4997801;28;20046;-90
2023/05/19 06:38:17;;;;;;;6.35;1.70;;;13.60;49.70;;;;;;4998353;28;20575;-89
2023/05/19 06:40:44;;;;;;;4.32;1.48;;;13.70;49.70;;;;;;4995798;28;20418;-90
2023/05/19 06:43:13;;;;;;;8.93;2.17;;;13.80;49.70;;;;;;4998754;28;20516;-89
2023/05/19 06:45:41;;;;;;;8.70;2.38;;;13.80;49.50;;;;;;4996178;28;20402;-90
2023/05/19 06:48:18;;;;;;;8.02;2.17;;;13.80;49.50;;;;;;4998389;28;20053;-91
2023/05/19 06:50:46;;;;;;;8.82;2.40;;;13.80;49.70;;;;;;4997807;28;20054;-89
2023/05/19 06:53:14;;;;;;;4.90;1.60;;;13.90;49.80;;;;;;4997664;28;20417;-90
2023/05/19 06:55:41;;;;;;;5.78;2.00;;;13.90;49.80;;;;;;4998694;28;20069;-89
2023/05/19 06:58:09;;;;;;;7.63;2.42;;;13.90;49.90;;;;;;4997147;28;20049;-88
2023/05/19 07:00:38;;;;;;;6.70;2.17;;;14.00;50.00;;;;;;4995789;28;20421;-88
2023/05/19 07:03:06;;;;;;;5.88;2.03;;;14.00;49.90;;;;;;4996878;28;20050;-90
2023/05/19 07:05:37;;;;;;;9.50;2.22;;;14.10;50.00;;;;;;4996618;28;20060;-89
2023/05/19 07:08:08;;;;;;;9.77;2.55;;;14.20;50.20;;;;;;4996532;28;20054;-93
2023/05/19 07:10:37;;;;;;;9.05;2.25;;;14.20;50.30;;;;;;4995710;28;20053;-88
2023/05/19 07:13:04;;;;;;;6.57;1.90;;;14.30;50.30;;;;;;4996811;28;20931;-90
2023/05/19 07:15:32;;;;;;;4.57;1.65;;;14.30;50.30;;;;;;4993855;28;20068;-90
2023/05/19 07:18:02;;;;;;;9.60;2.15;;;14.40;49.80;;;;;;4996914;28;20049;-86
2023/05/19 07:20:29;;;;;;;8.40;2.08;;;14.50;49.80;;;;;;5002027;28;20060;-87
2023/05/19 07:22:57;;;;;;;7.05;2.30;;;14.60;49.80;;;;;;4999612;28;20065;-89
2023/05/19 07:25:25;;;;;;;5.18;2.03;;;14.60;49.80;;;;;;5007093;28;20060;-90
2023/05/19 07:27:53;;;;;;;9.60;2.10;;;14.70;49.50;;;;;;4999654;28;20060;-89
2023/05/19 07:30:21;;;;;;;11.07;2.15;;;14.70;49.10;;;;;;4998333;28;20065;-89
2023/05/19 07:32:49;;;;;;;5.85;1.83;;;14.70;48.70;;;;;;4999015;28;20065;-89
2023/05/19 07:35:18;;;;;;;8.52;2.13;;;14.70;48.60;;;;;;4999209;28;20054;-90
2023/05/19 07:37:46;;;;;;;6.72;1.80;;;14.80;49.10;;;;;;5005019;28;20050;-89
2023/05/19 07:40:14;;;;;;;5.47;1.73;;;14.80;50.00;;;;;;5001655;28;20061;-91
2023/05/19 07:42:41;;;;;;;10.38;2.58;;;14.80;49.90;;;;;;5003591;28;20389;-91
2023/05/19 07:45:09;;;;;;;15.68;2.97;;;14.90;49.60;;;;;;5003959;28;20064;-92
2023/05/19 07:47:37;;;;;;;8.23;2.33;;;15.00;48.80;;;;;;5002441;28;20058;-91
2023/05/19 07:50:05;;;;;;;12.48;2.50;;;15.00;48.70;;;;;;5009661;28;20054;-92
2023/05/19 07:52:34;;;;;;;4.60;1.80;;;15.10;49.00;;;;;;5002605;28;20065;-90
2023/05/19 07:55:01;;;;;;;7.50;1.90;;;15.10;48.80;;;;;;5004165;28;20065;-92
2023/05/19 07:57:29;;;;;;;9.07;2.13;;;15.20;49.00;;;;;;5003608;28;20054;-91
2023/05/19 07:59:56;;;;;;;5.50;2.10;;;15.30;48.90;;;;;;5003918;28;20061;-91
2023/05/19 08:02:24;;;;;;;9.98;2.10;;;15.30;48.40;;;;;;5002747;28;20057;-91
2023/05/19 08:04:52;;;;;;;8.20;1.90;;;15.40;48.00;;;;;;5003924;28;20227;-91
2023/05/19 08:07:20;;;;;;;8.70;2.00;;;15.40;47.80;;;;;;5003508;28;20429;-92
2023/05/19 08:09:49;;;;;;;5.30;2.08;;;15.40;47.90;;;;;;5001936;28;20049;-91
2023/05/19 08:12:17;;;;;;;5.47;1.67;;;15.60;48.20;;;;;;5003298;28;20328;-94
2023/05/19 08:14:44;;;;;;;3.95;1.52;;;15.60;48.00;;;;;;5003834;28;20053;-92
2023/05/19 08:17:12;;;;;;;9.68;2.58;;;15.70;48.10;;;;;;5002261;28;20460;-92
2023/05/19 08:19:40;;;;;;;8.55;2.30;;;15.70;47.90;;;;;;5003708;28;20532;-92
2023/05/19 08:22:07;;;;;;;6.85;1.88;;;15.80;47.30;;;;;;5001824;28;20054;-92
2023/05/19 08:24:34;;;;;;;9.85;2.58;;;15.90;47.40;;;;;;5001654;28;20053;-92
2023/05/19 08:27:04;;;;;;;10.07;2.63;;;15.90;47.40;;;;;;5002052;28;20049;-92
2023/05/19 08:29:31;;;;;;;9.25;2.22;;;16.00;47.00;;;;;;5002657;28;20405;-93
2023/05/19 08:32:00;;;;;;;10.90;2.63;;;16.00;46.50;;;;;;5000470;28;20057;-92
2023/05/19 08:34:27;;;;;;;5.72;1.65;;;16.10;46.70;;;;;;5002685;28;20061;-92
2023/05/19 08:36:56;;;;;;;3.67;1.48;;;16.20;46.90;;;;;;5003519;28;20058;-93
2023/05/19 08:39:27;;;;;;;9.00;2.17;;;16.30;47.00;;;;;;5001427;28;20054;-90
2023/05/19 08:42:01;;;;;;;9.57;2.38;;;16.30;46.80;;;;;;5001826;28;20072;-94
2023/05/19 08:44:30;;;;;;;10.18;2.65;;;16.40;46.10;;;;;;5001463;28;20050;-91
2023/05/19 08:47:02;;;;;;;4.32;1.60;;;16.40;45.60;;;;;;5000239;28;20517;-90
2023/05/19 08:49:33;;;;;;;5.00;1.88;;;16.50;46.20;;;;;;5009436;28;20176;-90
2023/05/19 08:52:09;;;;;;;3.92;1.70;;;16.60;45.60;;;;;;5000582;28;20486;-88
2023/05/19 08:54:43;;;;;;;8.15;1.55;;;16.70;46.20;;;;;;4999938;28;20053;-87
2023/05/19 08:57:25;;;;;;;4.07;1.20;;;16.80;45.80;;;;;;5001080;28;20054;-94
2023/05/19 08:59:55;;;;;;;8.63;2.15;;;16.90;45.80;;;;;;5001123;28;20046;-88
2023/05/19 09:02:22;;;;;;;7.05;1.75;;;17.00;46.00;;;;;;4999155;28;20053;-88
2023/05/19 09:04:50;;;;;;;7.55;2.05;;;17.10;46.60;;;;;;5001524;28;20085;-89
2023/05/19 09:07:19;;;;;;;6.47;1.80;;;17.10;45.40;;;;;;5001440;28;20054;-87
2023/05/19 09:09:47;;;;;;;5.60;1.63;;;17.20;45.40;;;;;;5002643;28;20464;-87
2023/05/19 09:12:15;;;;;;;7.03;1.73;;;17.30;45.40;;;;;;4999649;28;20619;-89
2023/05/19 09:14:42;;;;;;;7.68;1.80;;;17.40;45.20;;;;;;4999688;28;20056;-88
2023/05/19 09:17:14;;;;;;;6.65;1.40;;;17.40;45.50;;;;;;4998602;28;21378;-89
2023/05/19 09:19:48;;;;;;;3.85;1.77;;;17.50;45.30;;;;;;4997803;28;20076;-88
2023/05/19 09:22:42;;;;;;;;;;;;;;;;;;;;;
2023/05/19 09:28:14;;;;;;;6.97;1.85;;;17.70;44.40;;;;;;4962127;28;20115;-88
2023/05/19 09:30:41;;;;;;;5.63;1.85;;;17.70;44.70;;;;;;4997733;28;20050;-89
2023/05/19 09:33:10;;;;;;;4.70;1.42;;;17.80;44.70;;;;;;5001303;28;20065;-88
2023/05/19 09:35:38;;;;;;;5.63;1.95;;;17.80;44.60;;;;;;5000811;28;20414;-90
2023/05/19 09:38:05;;;;;;;3.50;1.55;;;17.90;44.40;;;;;;4999849;28;20053;-90
2023/05/19 09:40:33;;;;;;;6.28;1.63;;;17.90;44.00;;;;;;5000770;28;20050;-90
2023/05/19 09:43:07;;;;;;;4.82;1.42;;;18.00;43.70;;;;;;5001057;28;20609;-88
2023/05/19 09:45:35;;;;;;;4.25;1.67;;;18.00;43.80;;;;;;5001041;28;20057;-89
2023/05/19 09:48:04;;;;;;;5.68;1.60;;;18.10;43.60;;;;;;5000981;28;20050;-87
2023/05/19 09:50:34;;;;;;;7.80;1.90;;;18.10;43.80;;;;;;4999351;28;20059;-88
2023/05/19 09:53:02;;;;;;;6.03;1.90;;;18.20;43.20;;;;;;4999984;28;20429;-88
2023/05/19 09:55:31;;;;;;;8.00;1.92;;;18.20;42.90;;;;;;4999689;28;20057;-87
2023/05/19 09:58:02;;;;;;;6.20;1.77;;;18.30;42.60;;;;;;5001260;28;20108;-87
2023/05/19 10:00:32;;;;;;;4.13;1.55;;;18.30;42.40;;;;;;5001250;28;20050;-90
2023/05/19 10:03:00;;;;;;;6.90;1.85;;;18.30;42.50;;;;;;5000487;28;20050;-91
2023/05/19 10:05:29;;;;;;;8.90;1.58;;;18.40;42.20;;;;;;5002521;28;20417;-91
2023/05/19 10:07:58;;;;;;;6.22;1.58;;;18.40;41.90;;;;;;5000822;28;20498;-90
2023/05/19 10:10:28;;;;;;;7.38;1.70;;;18.40;42.00;;;;;;5001173;28;20046;-92
2023/05/19 10:12:56;;;;;;;6.80;1.80;;;18.50;41.90;;;;;;4999696;28;20064;-92
2023/05/19 10:15:24;;;;;;;7.28;1.70;;;18.50;42.00;;;;;;5000391;28;20056;-91
2023/05/19 10:17:52;;;;;;;6.40;1.70;;;18.50;41.40;;;;;;5001369;28;20077;-93
2023/05/19 10:20:20;;;;;;;6.55;1.80;;;18.50;41.60;;;;;;5000497;28;20065;-92
2023/05/19 10:22:48;;;;;;;4.85;1.50;;;18.60;41.40;;;;;;5000022;28;20058;-92
2023/05/19 10:25:18;;;;;;;3.08;1.48;;;18.60;41.60;;;;;;5001227;28;20739;-92
2023/05/19 10:27:53;;;;;;;3.63;1.55;;;18.70;41.80;;;;;;5000302;28;20497;-91
2023/05/19 10:30:26;;;;;;;5.28;1.48;;;18.80;42.00;;;;;;5000225;28;20049;-92
2023/05/19 10:32:56;;;;;;;6.25;1.50;;;18.80;41.90;;;;;;4999928;28;20064;-91
2023/05/19 10:35:57;;;;;;;6.85;1.90;;;18.80;41.80;;;;;;5000632;28;20516;-90
2023/05/19 10:38:33;;;;;;;5.28;1.70;;;18.90;41.80;;;;;;5001184;28;21028;-92
2023/05/19 10:41:07;;;;;;;4.82;1.75;;;18.90;41.60;;;;;;5001086;28;20048;-92
2023/05/19 10:43:44;;;;;;;;;;;19.00;41.10;;;;;;5001560;28;20061;-91
2023/05/19 10:46:12;;;;;;;5.30;1.60;;;19.10;41.30;;;;;;4998397;28;19925;-92
2023/05/19 10:48:44;;;;;;;5.47;1.35;;;19.10;41.00;;;;;;5001201;28;20064;-92
2023/05/19 10:51:12;;;;;;;4.63;1.85;;;19.10;40.80;;;;;;5001430;28;20046;-91
2023/05/19 10:53:44;;;;;;;4.90;1.70;;;19.20;40.80;;;;;;5003206;28;20053;-91
2023/05/19 10:56:29;;;;;;;4.95;1.85;;;19.20;40.50;;;;;;5004628;28;20413;-92
2023/05/19 10:58:57;;;;;;;4.03;2.25;;;19.20;40.60;;;;;;5004055;28;20062;-92
2023/05/19 11:01:31;;;;;;;5.93;1.70;;;19.30;41.10;;;;;;5003218;28;20394;-93
2023/05/19 11:04:05;;;;;;;5.00;1.80;;;19.30;40.90;;;;;;5005604;28;20053;-92
2023/05/19 11:06:35;;;;;;;6.85;1.90;;;19.40;40.60;;;;;;5005522;28;20058;-93
2023/05/19 11:09:10;;;;;;;4.43;1.48;;;19.40;40.00;;;;;;5004567;28;20050;-92
2023/05/19 11:11:47;;;;;;;6.78;1.85;;;19.40;39.50;;;;;;5002252;28;20386;-88
2023/05/19 11:14:17;;;;;;;5.90;1.50;;;19.50;39.60;;;;;;5003439;28;20053;-87
2023/05/19 11:16:47;;;;;;;5.32;1.67;;;19.50;39.70;;;;;;5002778;28;20387;-89
2023/05/19 11:19:19;;;;;;;4.68;1.80;;;19.50;39.80;;;;;;5002645;28;20054;-88
2023/05/19 11:21:53;;;;;;;4.95;1.67;;;19.60;39.10;;;;;;5003054;28;20058;-90
2023/05/19 11:24:37;;;;;;;4.28;1.58;;;19.50;38.90;;;;;;5003052;28;20054;-89
2023/05/19 11:27:27;;;;;;;6.25;1.63;;;19.60;39.40;;;;;;5001022;28;20050;-90
2023/05/19 11:29:57;;;;;;;5.10;1.73;;;19.60;39.50;;;;;;4998265;28;20053;-88
2023/05/19 11:32:29;;;;;;;6.32;1.88;;;19.70;39.00;;;;;;5000440;28;20053;-89
2023/05/19 11:34:57;;;;;;;2.08;1.00;;;19.70;38.00;;;;;;5001694;28;20058;-89
2023/05/19 11:37:25;;;;;;;4.30;1.25;;;19.70;38.60;;;;;;5002648;28;20045;-89
2023/05/19 11:39:53;;;;;;;7.80;1.80;;;19.80;38.90;;;;;;5001919;28;20382;-90
2023/05/19 11:42:20;;;;;;;4.43;1.67;;;19.80;38.90;;;;;;5005251;28;20065;-89
2023/05/19 11:44:49;;;;;;;4.50;1.75;;;19.80;38.70;;;;;;5002474;28;20050;-89
2023/05/19 11:47:17;;;;;;;5.47;1.75;;;19.80;38.40;;;;;;4998905;28;20087;-89
2023/05/19 11:49:45;;;;;;;6.70;1.80;;;19.90;38.30;;;;;;5003595;28;20053;-89
2023/05/19 11:52:13;;;;;;;5.10;1.55;;;19.90;38.10;;;;;;5002259;28;20053;-89
2023/05/19 11:54:41;;;;;;;6.65;1.65;;;19.90;37.30;;;;;;5001484;28;20165;-90
2023/05/19 11:57:09;;;;;;;7.45;2.03;;;20.00;37.80;;;;;;5001384;28;20513;-89
2023/05/19 11:59:39;;;;;;;3.78;1.42;;;20.00;37.90;;;;;;5000386;28;20493;-91
2023/05/19 12:02:17;;;;;;;7.18;1.58;;;20.00;37.50;;;;;;4999181;28;20049;-89
2023/05/19 12:04:45;;;;;;;6.90;1.70;;;20.00;37.00;;;;;;5002085;28;20057;-88
2023/05/19 12:07:14;;;;;;;3.40;1.40;;;20.00;36.90;;;;;;4999732;28;20050;-89
2023/05/19 12:09:41;;;;;;;5.00;1.77;;;20.10;36.80;;;;;;5001816;28;20057;-89
2023/05/19 12:12:08;;;;;;;4.72;1.52;;;20.10;37.20;;;;;;5001429;28;20050;-89
2023/05/19 12:14:37;;;;;;;4.28;1.73;;;20.10;37.10;;;;;;5002354;28;20061;-89
2023/05/19 12:17:12;;;;;;;6.32;1.52;;;20.10;37.20;;;;;;5001913;28;20057;-89
2023/05/19 12:19:43;;;;;;;5.65;1.55;;;20.20;37.30;;;;;;5002166;28;20057;-89
2023/05/19 12:22:11;;;;;;;5.93;1.70;;;20.20;36.90;;;;;;4998742;28;20050;-89
2023/05/19 12:24:40;;;;;;;7.65;1.63;;;20.20;36.60;;;;;;4999222;28;20497;-90
2023/05/19 12:27:12;;;;;;;2.45;1.30;;;20.20;36.10;;;;;;4998730;28;20472;-89
2023/05/19 12:29:49;;;;;;;3.47;1.30;;;20.30;36.10;;;;;;4998266;28;20050;-90
2023/05/19 12:32:17;;;;;;;4.07;1.80;;;20.30;36.00;;;;;;4994816;28;20429;-89
2023/05/19 12:34:48;;;;;;;4.72;1.90;;;20.30;36.20;;;;;;4997726;28;20390;-89
2023/05/19 12:37:29;;;;;;;4.82;1.58;;;20.40;36.20;;;;;;4996151;28;20567;-89
2023/05/19 12:40:10;;;;;;;5.78;1.67;;;20.40;35.60;;;;;;4997553;28;20642;-89
2023/05/19 12:42:37;;;;;;;3.10;1.50;;;20.40;35.70;;;;;;4994004;28;20069;-89
2023/05/19 12:45:11;;;;;;;4.78;1.70;;;20.50;35.70;;;;;;4996724;28;20045;-89
2023/05/19 12:50:13;;;;;;;5.37;1.50;;;20.50;35.90;;;;;;5004337;28;20057;-57
2023/05/19 12:52:42;;;;;;;4.20;1.65;;;20.60;35.60;;;;;;5003282;28;20050;-56
2023/05/19 12:55:10;;;;;;;7.82;2.15;;;20.60;35.60;;;;;;5004052;28;20050;-56
2023/05/19 12:57:39;;;;;;;4.47;1.80;;;20.60;35.50;;;;;;5004070;28;20457;-57
2023/05/19 13:00:14;;;;;;;5.35;1.90;;;20.60;35.20;;;;;;5002443;28;20049;-58
2023/05/19 13:02:55;;;;;;;5.68;1.60;;;20.60;34.80;;;;;;5003094;28;20046;-58
2023/05/19 13:05:24;;;;;;;4.78;1.40;;;20.60;35.10;;;;;;5005538;28;20062;-57
2023/05/19 13:07:56;;;;;;;4.93;1.50;;;20.60;35.40;;;;;;5005938;28;20502;-56
2023/05/19 13:10:28;;;;;;;3.60;1.50;;;20.70;35.50;;;;;;5005054;28;20054;-57
2023/05/19 13:12:56;;;;;;;5.50;1.70;;;20.70;35.60;;;;;;5005975;28;20080;-58
2023/05/19 13:15:25;;;;;;;4.82;1.52;;;20.70;35.50;;;;;;5003904;28;20416;-58